createdAt,value
2022-08-09T00:00:00.505Z,2.23
2022-08-09T00:02:48.994Z,2.30
2022-08-09T00:06:17.655Z,2.20
2022-08-09T00:08:12.859Z,2.07
2022-08-09T00:10:41.930Z,2.30
2022-08-09T00:13:17.040Z,2.23
2022-08-09T00:15:59.041Z,2.03
2022-08-09T00:18:34.539Z,2.00
2022-08-09T00:21:08.455Z,2.10
2022-08-09T00:23:55.014Z,2.20
2022-08-09T00:26:32.950Z,2.27
2022-08-09T00:29:03.094Z,2.20
2022-08-09T00:31:58.290Z,1.97
2022-08-09T00:34:20.966Z,2.13
2022-08-09T00:36:50.923Z,2.00
2022-08-09T00:40:12.993Z,2.10
2022-08-09T00:44:11.447Z,2.17
2022-08-09T00:44:59.833Z,2.00
2022-08-09T00:47:33.211Z,2.00
2022-08-09T00:50:14.761Z,2.20
2022-08-09T00:52:45.122Z,2.03
2022-08-09T00:55:16.792Z,2.20
2022-08-09T00:58:02.018Z,2.20
2022-08-09T01:00:35.275Z,2.23
2022-08-09T01:03:14.555Z,1.93
2022-08-09T01:05:54.306Z,2.00
2022-08-09T01:08:32.237Z,2.10
2022-08-09T01:11:21.063Z,2.27
2022-08-09T01:13:59.375Z,2.10
2022-08-09T01:16:36.208Z,2.00
2022-08-09T01:19:17.076Z,2.13
2022-08-09T01:22:19.809Z,2.27
2022-08-09T01:25:01.114Z,2.10
2022-08-09T01:27:35.212Z,2.20
2022-08-09T01:30:06.595Z,2.20
2022-08-09T01:32:45.532Z,2.10
2022-08-09T01:35:38.109Z,2.43
2022-08-09T01:38:15.192Z,2.20
2022-08-09T01:40:52.833Z,2.30
2022-08-09T01:43:42.027Z,2.20
2022-08-09T01:46:25.127Z,2.30
2022-08-09T01:48:59.705Z,2.20
2022-08-09T01:51:32.151Z,2.20
2022-08-09T01:54:04.196Z,2.30
2022-08-09T01:56:34.388Z,2.20
2022-08-09T01:59:10.441Z,2.27
2022-08-09T02:01:59.168Z,2.27
2022-08-09T02:04:31.395Z,2.20
2022-08-09T02:08:34.738Z,2.30
2022-08-09T02:10:07.775Z,2.53
2022-08-09T02:12:37.208Z,2.40
2022-08-09T02:15:11.950Z,2.30
2022-08-09T02:18:09.509Z,2.50
2022-08-09T02:20:42.077Z,2.07
2022-08-09T02:23:17.102Z,2.33
2022-08-09T02:25:52.884Z,2.50
2022-08-09T02:28:31.602Z,2.30
2022-08-09T02:31:05.909Z,2.30
2022-08-09T02:34:06.318Z,2.30
2022-08-09T02:36:32.876Z,2.33
2022-08-09T02:39:06.769Z,2.30
2022-08-09T02:41:46.837Z,2.40
2022-08-09T02:44:30.297Z,2.53
2022-08-09T02:47:04.264Z,2.40
2022-08-09T02:49:40.937Z,2.33
2022-08-09T02:52:14.707Z,2.33
2022-08-09T02:54:53.870Z,2.40
2022-08-09T02:57:25.553Z,2.50
2022-08-09T03:00:21.213Z,2.43
2022-08-09T03:02:59.754Z,2.43
2022-08-09T03:05:34.456Z,2.20
2022-08-09T03:08:05.848Z,2.30
2022-08-09T03:10:36.167Z,2.50
2022-08-09T03:13:08.544Z,2.67
2022-08-09T03:16:04.712Z,2.60
2022-08-09T03:18:30.991Z,2.40
2022-08-09T03:21:01.707Z,2.47
2022-08-09T03:23:30.642Z,2.40
2022-08-09T03:26:03.487Z,2.50
2022-08-09T03:28:35.278Z,2.63
2022-08-09T03:31:04.244Z,2.53
2022-08-09T03:33:54.470Z,2.60
2022-08-09T03:36:27.001Z,2.43
2022-08-09T03:38:57.992Z,2.80
2022-08-09T03:41:30.184Z,2.70
2022-08-09T03:44:15.745Z,2.87
2022-08-09T03:46:45.037Z,2.70
2022-08-09T03:49:19.124Z,2.60
2022-08-09T03:51:58.437Z,2.90
2022-08-09T03:54:32.118Z,3.00
2022-08-09T03:57:18.089Z,2.70
2022-08-09T03:59:54.228Z,3.00
2022-08-09T04:02:28.014Z,3.00
2022-08-09T04:05:00.710Z,2.90
2022-08-09T04:07:47.883Z,3.00
2022-08-09T04:10:29.386Z,2.97
2022-08-09T04:13:04.065Z,3.00
2022-08-09T04:16:18.088Z,3.10
2022-08-09T04:18:22.254Z,2.87
2022-08-09T04:20:55.031Z,3.07
2022-08-09T04:23:24.971Z,2.90
2022-08-09T04:25:55.197Z,2.87
2022-08-09T04:28:33.350Z,2.90
2022-08-09T04:31:07.942Z,3.10
2022-08-09T04:33:47.664Z,3.10
2022-08-09T04:36:27.584Z,3.10
2022-08-09T04:38:59.361Z,3.60
2022-08-09T04:41:32.638Z,3.20
2022-08-09T04:44:09.768Z,3.47
2022-08-09T04:46:58.314Z,3.60
2022-08-09T04:49:53.241Z,3.20
2022-08-09T04:52:26.987Z,3.07
2022-08-09T04:54:56.614Z,3.30
2022-08-09T04:57:25.418Z,3.37
2022-08-09T04:59:55.505Z,3.20
2022-08-09T05:02:27.110Z,3.30
2022-08-09T05:04:56.842Z,3.40
2022-08-09T05:07:31.824Z,3.40
2022-08-09T05:10:01.695Z,3.30
2022-08-09T05:12:32.887Z,3.47
2022-08-09T05:15:11.889Z,3.50
2022-08-09T05:18:38.987Z,3.47
2022-08-09T05:20:41.477Z,3.50
2022-08-09T05:23:55.576Z,4.13
2022-08-09T05:26:03.045Z,3.70
2022-08-09T05:28:31.518Z,4.13
2022-08-09T05:31:00.715Z,3.67
2022-08-09T05:33:42.423Z,3.63
2022-08-09T05:36:11.341Z,3.90
2022-08-09T05:38:46.141Z,4.00
2022-08-09T05:41:15.458Z,4.17
2022-08-09T05:43:45.045Z,4.00
2022-08-09T05:46:17.457Z,3.80
2022-08-09T05:48:48.759Z,4.07
2022-08-09T05:51:43.226Z,4.10
2022-08-09T05:54:16.831Z,4.37
2022-08-09T05:56:54.878Z,4.20
2022-08-09T05:59:25.184Z,4.30
2022-08-09T06:01:58.941Z,4.30
2022-08-09T06:04:34.977Z,4.70
2022-08-09T06:07:03.752Z,4.47
2022-08-09T06:09:55.176Z,3.90
2022-08-09T06:12:22.343Z,3.90
2022-08-09T06:14:54.870Z,4.13
2022-08-09T06:17:23.393Z,4.60
2022-08-09T06:19:51.873Z,3.80
2022-08-09T06:22:28.866Z,3.97
2022-08-09T06:24:59.159Z,3.93
2022-08-09T06:27:42.269Z,3.93
2022-08-09T06:30:14.061Z,4.10
2022-08-09T06:33:00.855Z,3.70
2022-08-09T06:35:56.338Z,3.40
2022-08-09T06:38:19.786Z,3.30
2022-08-09T06:41:01.909Z,3.37
2022-08-09T06:43:34.317Z,3.80
2022-08-09T06:46:06.471Z,3.53
2022-08-09T06:48:42.744Z,3.70
2022-08-09T06:51:12.460Z,3.70
2022-08-09T06:53:43.372Z,3.80
2022-08-09T06:56:13.662Z,3.87
2022-08-09T07:00:50.473Z,3.53
2022-08-09T07:01:53.735Z,3.40
2022-08-09T07:04:20.415Z,3.67
2022-08-09T07:06:53.276Z,3.47
2022-08-09T07:09:53.529Z,3.70
2022-08-09T07:12:13.721Z,3.30
2022-08-09T07:14:51.123Z,3.07
2022-08-09T07:17:21.511Z,3.00
2022-08-09T07:19:50.775Z,3.30
2022-08-09T07:22:27.535Z,3.33
2022-08-09T07:25:05.399Z,2.90
2022-08-09T07:27:42.951Z,2.80
2022-08-09T07:30:25.060Z,2.93
2022-08-09T07:32:55.063Z,3.10
2022-08-09T07:35:25.792Z,3.00
2022-08-09T07:37:59.498Z,2.80
2022-08-09T07:40:37.208Z,2.80
2022-08-09T07:43:21.609Z,2.87
2022-08-09T07:46:01.923Z,2.97
2022-08-09T07:48:31.805Z,2.90
2022-08-09T07:51:09.136Z,2.70
2022-08-09T07:54:06.211Z,2.60
2022-08-09T07:56:49.031Z,2.90
2022-08-09T07:59:34.178Z,3.08
2022-08-09T08:02:11.295Z,2.70
2022-08-09T08:04:49.250Z,2.50
2022-08-09T08:08:42.582Z,2.30
2022-08-09T08:10:12.385Z,2.47
2022-08-09T08:12:45.305Z,2.70
2022-08-09T08:15:24.053Z,2.55
2022-08-09T08:17:58.660Z,2.50
2022-08-09T08:20:32.987Z,2.30
2022-08-09T08:23:15.822Z,2.75
2022-08-09T08:25:49.883Z,2.72
2022-08-09T08:28:32.135Z,2.72
2022-08-09T08:31:10.446Z,2.78
2022-08-09T08:33:52.704Z,2.20
2022-08-09T08:36:28.643Z,2.40
2022-08-09T08:38:59.663Z,2.38
2022-08-09T08:41:50.255Z,2.40
2022-08-09T08:44:27.045Z,2.45
2022-08-09T08:47:04.641Z,2.40
2022-08-09T08:49:47.888Z,2.50
2022-08-09T08:52:58.450Z,2.50
2022-08-09T08:55:09.721Z,2.25
2022-08-09T08:57:38.230Z,2.33
2022-08-09T09:00:20.408Z,2.55
2022-08-09T09:03:08.188Z,2.80
2022-08-09T09:06:01.063Z,2.70
2022-08-09T09:08:40.750Z,2.55
2022-08-09T09:11:13.886Z,2.40
2022-08-09T09:13:55.874Z,2.60
2022-08-09T09:16:30.404Z,2.83
2022-08-09T09:19:36.917Z,2.88
2022-08-09T09:22:03.605Z,3.10
2022-08-09T09:24:37.723Z,2.60
2022-08-09T09:27:08.522Z,2.72
2022-08-09T09:30:08.787Z,2.60
2022-08-09T09:32:34.436Z,3.38
2022-08-09T09:35:10.284Z,2.60
2022-08-09T09:37:40.239Z,2.70
2022-08-09T09:40:11.811Z,2.30
2022-08-09T09:42:45.983Z,2.30
2022-08-09T09:45:25.748Z,2.30
2022-08-09T09:47:58.672Z,2.40
2022-08-09T09:50:49.784Z,2.55
2022-08-09T09:53:25.093Z,2.70
2022-08-09T09:56:31.038Z,2.40
2022-08-09T09:59:01.181Z,2.55
2022-08-09T10:01:30.180Z,2.40
2022-08-09T10:04:14.865Z,2.60
2022-08-09T10:06:52.108Z,2.50
2022-08-09T10:09:24.112Z,2.50
2022-08-09T10:12:07.636Z,2.38
2022-08-09T10:14:47.759Z,2.35
2022-08-09T10:17:50.966Z,2.58
2022-08-09T10:20:27.617Z,2.40
2022-08-09T10:23:19.926Z,2.40
2022-08-09T10:26:04.865Z,2.30
2022-08-09T10:28:38.513Z,2.42
2022-08-09T10:34:09.610Z,2.15
2022-08-09T10:36:50.289Z,2.40
2022-08-09T10:39:26.964Z,2.55
2022-08-09T10:41:57.656Z,2.40
2022-08-09T10:44:30.493Z,2.30
2022-08-09T10:48:13.449Z,2.10
2022-08-09T10:50:21.099Z,2.17
2022-08-09T10:53:10.327Z,2.40
2022-08-09T10:55:55.371Z,2.33
2022-08-09T10:58:33.561Z,2.42
2022-08-09T11:03:06.628Z,2.20
2022-08-09T11:04:19.348Z,2.60
2022-08-09T11:07:57.671Z,1.85
2022-08-09T11:10:18.749Z,2.08
2022-08-09T11:13:49.180Z,1.90
2022-08-09T11:16:35.605Z,2.00
2022-08-09T11:19:09.616Z,2.05
2022-08-09T11:22:18.597Z,2.10
2022-08-09T11:25:08.800Z,2.20
2022-08-09T11:28:08.552Z,2.13
2022-08-09T11:30:37.597Z,2.08
2022-08-09T11:33:10.955Z,1.90
2022-08-09T11:35:49.125Z,1.80
2022-08-09T11:38:22.238Z,1.88
2022-08-09T11:40:57.521Z,1.90
2022-08-09T11:43:41.923Z,1.80
2022-08-09T11:46:12.232Z,1.70
2022-08-09T11:48:52.868Z,1.83
2022-08-09T11:52:57.122Z,1.90
2022-08-09T11:54:27.631Z,1.80
2022-08-09T11:57:59.811Z,1.70
2022-08-09T12:00:27.745Z,1.73
2022-08-09T12:02:58.755Z,1.65
2022-08-09T12:05:39.579Z,1.58
2022-08-09T12:08:19.895Z,1.80
2022-08-09T12:10:52.933Z,1.85
2022-08-09T12:14:10.459Z,1.52
2022-08-09T12:16:37.113Z,1.60
2022-08-09T12:19:09.676Z,1.60
2022-08-09T12:21:50.426Z,1.77
2022-08-09T12:24:24.927Z,1.60
2022-08-09T12:29:11.993Z,1.60
2022-08-09T12:30:00.132Z,1.70
2022-08-09T12:32:45.120Z,1.75
2022-08-09T12:35:19.224Z,1.70
2022-08-09T12:37:52.083Z,1.50
2022-08-09T12:40:24.571Z,1.38
2022-08-09T12:42:54.195Z,1.50
2022-08-09T12:45:34.298Z,1.40
2022-08-09T12:48:20.104Z,1.60
2022-08-09T12:50:59.396Z,1.80
2022-08-09T12:53:37.072Z,1.63
2022-08-09T12:56:39.954Z,1.60
2022-08-09T12:59:11.789Z,1.50
2022-08-09T13:01:46.977Z,1.50
2022-08-09T13:04:36.022Z,1.60
2022-08-09T13:07:16.571Z,1.50
2022-08-09T13:09:55.193Z,1.60
2022-08-09T13:12:29.280Z,1.77
2022-08-09T13:15:07.319Z,1.50
2022-08-09T13:18:02.982Z,1.50
2022-08-09T13:20:37.194Z,1.30
2022-08-09T13:24:16.846Z,1.48
2022-08-09T13:25:57.227Z,1.55
2022-08-09T13:28:34.463Z,1.45
2022-08-09T13:32:14.219Z,1.50
2022-08-09T13:33:58.001Z,1.38
2022-08-09T13:36:40.363Z,1.42
2022-08-09T13:41:20.980Z,1.38
2022-08-09T13:42:03.320Z,1.50
2022-08-09T13:44:33.489Z,1.23
2022-08-09T13:47:29.234Z,1.48
2022-08-09T13:49:57.550Z,1.30
2022-08-09T13:52:29.903Z,1.50
2022-08-09T13:55:04.280Z,1.27
2022-08-09T13:57:39.702Z,1.40
2022-08-09T14:00:13.247Z,1.35
2022-08-09T14:03:03.092Z,1.25
2022-08-09T14:05:59.643Z,1.60
2022-08-09T14:08:21.563Z,1.50
2022-08-09T14:10:53.144Z,1.50
2022-08-09T14:14:15.379Z,1.48
2022-08-09T14:16:15.319Z,1.40
2022-08-09T14:18:49.399Z,1.25
2022-08-09T14:21:21.010Z,1.30
2022-08-09T14:23:53.994Z,1.35
2022-08-09T14:26:30.664Z,1.30
2022-08-09T14:29:08.228Z,1.40
2022-08-09T14:31:54.004Z,1.50
2022-08-09T14:34:31.423Z,1.40
2022-08-09T14:37:06.543Z,1.50
2022-08-09T14:42:48.293Z,1.50
2022-08-09T14:46:54.550Z,1.40
2022-08-09T14:48:06.286Z,1.55
2022-08-09T14:50:37.394Z,1.42
2022-08-09T14:53:11.697Z,1.30
2022-08-09T14:55:41.999Z,1.50
2022-08-09T14:58:13.130Z,1.40
2022-08-09T15:00:42.477Z,1.70
2022-08-09T15:03:11.312Z,1.40
2022-08-09T15:05:50.349Z,1.40
2022-08-09T15:08:30.330Z,1.40
2022-08-09T15:11:00.469Z,1.40
2022-08-09T15:13:48.088Z,1.30
2022-08-09T15:16:20.004Z,1.58
2022-08-09T15:18:49.678Z,1.45
2022-08-09T15:21:58.157Z,1.33
2022-08-09T15:24:15.297Z,1.50
2022-08-09T15:26:46.772Z,1.50
2022-08-09T15:30:48.265Z,1.35
2022-08-09T15:32:05.972Z,1.70
2022-08-09T15:34:54.967Z,1.40
2022-08-09T15:37:56.194Z,1.50
2022-08-09T15:40:31.944Z,1.40
2022-08-09T15:43:01.914Z,1.52
2022-08-09T15:46:07.463Z,1.60
2022-08-09T15:48:29.465Z,1.50
2022-08-09T15:51:00.650Z,1.50
2022-08-09T15:54:03.417Z,1.40
2022-08-09T15:56:21.520Z,1.52
2022-08-09T15:58:57.660Z,1.40
2022-08-09T16:01:31.613Z,1.40
2022-08-09T16:04:03.984Z,1.45
2022-08-09T16:06:35.559Z,1.60
2022-08-09T16:09:06.797Z,1.40
2022-08-09T16:11:35.483Z,1.40
2022-08-09T16:14:07.905Z,1.48
2022-08-09T16:16:42.014Z,1.63
2022-08-09T16:19:17.036Z,1.35
2022-08-09T16:21:51.998Z,1.40
2022-08-09T16:24:33.576Z,1.50
2022-08-09T16:27:05.038Z,1.50
2022-08-09T16:29:38.004Z,1.60
2022-08-09T16:32:33.962Z,1.40
2022-08-09T16:35:03.963Z,1.38
2022-08-09T16:37:55.045Z,1.40
2022-08-09T16:40:40.006Z,1.60
2022-08-09T16:43:10.005Z,1.40
2022-08-09T16:45:44.388Z,1.60
2022-08-09T16:48:38.013Z,1.50
2022-08-09T16:51:07.920Z,1.50
2022-08-09T16:53:47.245Z,1.50
2022-08-09T16:56:26.367Z,1.45
2022-08-09T16:58:59.563Z,1.58
2022-08-09T17:01:33.746Z,1.48
2022-08-09T17:04:05.499Z,1.40
2022-08-09T17:07:07.308Z,1.33
2022-08-09T17:09:46.274Z,1.40
2022-08-09T17:12:13.002Z,1.58
2022-08-09T17:14:47.723Z,1.50
2022-08-09T17:17:26.382Z,1.40
2022-08-09T17:20:33.219Z,1.42
2022-08-09T17:22:49.802Z,1.42
2022-08-09T17:25:22.321Z,1.20
2022-08-09T17:27:54.636Z,1.30
2022-08-09T17:30:25.865Z,1.40
2022-08-09T17:33:00.543Z,1.40
2022-08-09T17:35:32.281Z,1.48
2022-08-09T17:38:12.053Z,1.50
2022-08-09T17:40:49.866Z,1.50
2022-08-09T17:43:34.102Z,1.45
2022-08-09T17:46:07.640Z,1.50
2022-08-09T17:48:51.644Z,1.65
2022-08-09T17:51:23.228Z,1.70
2022-08-09T17:53:55.581Z,1.63
2022-08-09T17:56:28.501Z,1.60
2022-08-09T17:58:59.913Z,1.50
2022-08-09T18:02:03.834Z,1.60
2022-08-09T18:04:19.782Z,1.70
2022-08-09T18:06:54.897Z,1.63
2022-08-09T18:09:40.303Z,1.60
2022-08-09T18:12:17.200Z,1.60
2022-08-09T18:14:49.750Z,1.60
2022-08-09T18:17:27.432Z,1.63
2022-08-09T18:20:55.073Z,1.65
2022-08-09T18:22:59.821Z,2.00
2022-08-09T18:25:52.277Z,1.70
2022-08-09T18:30:38.192Z,1.70
2022-08-09T18:31:11.758Z,1.60
2022-08-09T18:33:40.699Z,1.60
2022-08-09T18:36:14.330Z,1.67
2022-08-09T18:39:02.614Z,2.13
2022-08-09T18:41:34.171Z,1.80
2022-08-09T18:44:13.048Z,1.88
2022-08-09T18:46:46.544Z,1.80
2022-08-09T18:49:20.319Z,1.80
2022-08-09T18:51:54.908Z,1.80
2022-08-09T18:54:29.498Z,1.80
2022-08-09T18:57:06.205Z,1.90
2022-08-09T18:59:37.516Z,1.90
2022-08-09T19:02:18.370Z,2.10
2022-08-09T19:05:14.974Z,2.00
2022-08-09T19:07:36.573Z,1.80
2022-08-09T19:10:13.888Z,2.10
2022-08-09T19:12:47.363Z,1.90
2022-08-09T19:15:30.743Z,1.95
2022-08-09T19:17:59.382Z,2.20
2022-08-09T19:20:34.422Z,1.80
2022-08-09T19:23:08.490Z,2.03
2022-08-09T19:26:04.717Z,1.90
2022-08-09T19:28:34.912Z,2.28
2022-08-09T19:31:07.642Z,2.10
2022-08-09T19:33:37.117Z,2.10
2022-08-09T19:36:07.127Z,2.10
2022-08-09T19:38:41.313Z,2.17
2022-08-09T19:41:12.785Z,2.15
2022-08-09T19:44:03.227Z,2.60
2022-08-09T19:46:35.846Z,2.97
2022-08-09T19:50:09.024Z,2.20
2022-08-09T19:52:08.557Z,2.20
2022-08-09T19:54:37.361Z,2.00
2022-08-09T19:57:08.501Z,2.28
2022-08-09T19:59:57.328Z,2.20
2022-08-09T20:04:18.236Z,2.08
2022-08-09T20:05:16.449Z,2.30
2022-08-09T20:07:58.600Z,2.20
2022-08-09T20:10:34.780Z,2.20
2022-08-09T20:13:18.847Z,2.10
2022-08-09T20:16:33.950Z,2.38
2022-08-09T20:18:38.617Z,2.20
2022-08-09T20:21:40.798Z,2.40
2022-08-09T20:24:15.689Z,2.70
2022-08-09T20:26:58.041Z,2.55
2022-08-09T20:29:37.428Z,2.30
2022-08-09T20:32:29.770Z,2.60
2022-08-09T20:34:56.836Z,2.28
2022-08-09T20:37:25.878Z,2.20
2022-08-09T20:40:24.678Z,2.20
2022-08-09T20:43:00.077Z,2.10
2022-08-09T20:46:01.710Z,2.47
2022-08-09T20:48:28.999Z,2.85
2022-08-09T20:51:00.049Z,2.78
2022-08-09T20:53:37.200Z,2.55
2022-08-09T20:56:21.139Z,2.53
2022-08-09T20:58:58.186Z,2.40
2022-08-09T21:01:34.817Z,3.07
2022-08-09T21:05:53.880Z,2.40
2022-08-09T21:07:11.597Z,2.35
2022-08-09T21:09:45.729Z,2.30
2022-08-09T21:15:14.137Z,2.35
2022-08-09T21:18:11.773Z,2.70
2022-08-09T21:20:35.365Z,2.70
2022-08-09T21:23:04.444Z,2.47
2022-08-09T21:25:56.035Z,2.60
2022-08-09T21:28:33.838Z,2.30
2022-08-09T21:31:16.854Z,2.63
2022-08-09T21:33:51.702Z,2.37
2022-08-09T21:36:22.954Z,2.40
2022-08-09T21:38:57.862Z,2.60
2022-08-09T21:42:05.711Z,2.50
2022-08-09T21:44:32.948Z,2.60
2022-08-09T21:47:05.573Z,2.60
2022-08-09T21:49:39.553Z,2.83
2022-08-09T21:52:16.913Z,2.90
2022-08-09T21:54:49.444Z,2.30
2022-08-09T21:57:25.476Z,2.50
2022-08-09T22:00:12.787Z,2.80
2022-08-09T22:02:43.147Z,2.60
2022-08-09T22:05:22.971Z,2.87
2022-08-09T22:07:54.011Z,2.60
2022-08-09T22:10:23.998Z,2.70
2022-08-09T22:12:53.022Z,2.67
2022-08-09T22:15:23.220Z,2.73
2022-08-09T22:18:02.103Z,2.80
2022-08-09T22:20:32.717Z,2.50
2022-08-09T22:23:01.290Z,2.80
2022-08-09T22:26:06.159Z,2.83
2022-08-09T22:28:32.550Z,2.70
2022-08-09T22:31:02.339Z,2.77
2022-08-09T22:33:48.745Z,2.70
2022-08-09T22:36:19.684Z,2.60
2022-08-09T22:38:48.943Z,2.70
2022-08-09T22:41:17.741Z,2.97
2022-08-09T22:44:01.734Z,2.80
2022-08-09T22:48:12.381Z,2.83
2022-08-09T22:49:20.418Z,2.83
2022-08-09T22:51:56.962Z,2.80
2022-08-09T22:54:27.584Z,2.77
2022-08-09T22:56:58.754Z,2.87
2022-08-09T22:59:55.636Z,2.70
2022-08-09T23:02:20.288Z,2.70
2022-08-09T23:04:53.902Z,2.73
2022-08-09T23:08:22.492Z,2.83
2022-08-09T23:10:33.504Z,2.80
2022-08-09T23:13:03.634Z,2.90
2022-08-09T23:15:35.085Z,2.60
2022-08-09T23:18:05.531Z,3.00
2022-08-09T23:20:40.989Z,2.70
2022-08-09T23:23:13.009Z,2.60
2022-08-09T23:25:41.876Z,2.60
2022-08-09T23:28:15.238Z,2.73
2022-08-09T23:30:51.986Z,2.93
2022-08-09T23:33:21.040Z,2.87
2022-08-09T23:36:04.507Z,2.83
2022-08-09T23:38:49.206Z,3.10
2022-08-09T23:41:27.640Z,2.60
2022-08-09T23:43:58.227Z,2.80
2022-08-09T23:46:27.020Z,3.17
2022-08-09T23:48:55.647Z,2.50
2022-08-09T23:51:24.161Z,2.83
2022-08-09T23:53:55.336Z,3.00
2022-08-09T23:56:53.800Z,3.00
2022-08-09T23:59:20.706Z,2.87
